GMMC/CAS METAR and TAF weather

Enter ICAO airport designator
Station Type Date Time Source
GMMC METAR 2020/09/25 19:00 UTC NOAA

GMMC 251900Z 06012KT CAVOK 21/16 Q1022


Station Type Date Time Source
GMMC Decoded METAR 2020/09/25 19:00 UTC NOAA

Casablanca, Morocco (GMMC) 33-34N 007-40W 62M
Sep 25, 2020 - 03:00 PM EDT / 2020.09.25 1900 UTC
Wind: from the ENE (060 degrees) at 14 MPH (12 KT):0
Visibility: greater than 7 mile(s):0
Temperature: 69 F (21 C)
Dew Point: 60 F (16 C)
Relative Humidity: 73%
Pressure (altimeter): 30.18 in. Hg (1022 hPa)
ob: GMMC 251900Z 06012KT CAVOK 21/16 Q1022
cycle: 19

Station Type Date Time Source
GMMC TAF 2016/05/22 17:00 UTC NOAA

FTMC31 GMMC 221700 RRA TAF LPPT 221700Z 2218/2324 34013KT CAVOK
BECMG 2221/2224 34007KT
BECMG 2310/2312 VRB03KT

Example: see airport list